Time;durP1;ratioP1;P1;durP2;ratioP2;P2;SDS_P1;SDS_P2;PMS_P1;PMS_P2;Temp;Humidity;BMP_temperature;BMP_pressure;BME280_temperature;BME280_humidity;BME280_pressure;Samples;Min_cycle;Max_cycle;Signal;HPM_P1;HPM_P2
2023/12/22 00:01:35;;;;;;;30.20;19.77;;;;;;;4.68;72.54;99140.69;5083220;28;20051;-83
2023/12/22 00:04:29;;;;;;;42.30;25.20;;;;;;;4.78;70.26;99151.13;5082525;28;20047;-83
2023/12/22 00:07:24;;;;;;;29.03;18.33;;;;;;;4.62;71.24;99136.56;5083830;28;20044;-83
2023/12/22 00:10:16;;;;;;;28.00;18.65;;;;;;;4.72;69.28;99125.50;5081017;28;20044;-83
2023/12/22 00:13:11;;;;;;;34.90;23.55;;;;;;;4.91;69.17;99128.69;5085128;28;20048;-83
2023/12/22 00:16:08;;;;;;;35.92;23.85;;;;;;;5.06;68.75;99132.78;5086705;28;20048;-83
2023/12/22 00:19:03;;;;;;;31.13;22.42;;;;;;;5.05;67.87;99142.78;5080407;28;20055;-83
2023/12/22 00:21:58;;;;;;;29.08;19.10;;;;;;;5.05;68.58;99139.28;5084145;28;20048;-83
2023/12/22 00:24:52;;;;;;;30.77;22.40;;;;;;;5.10;67.80;99125.66;5081896;28;20444;-84
2023/12/22 00:27:47;;;;;;;25.63;16.73;;;;;;;4.68;67.31;99117.25;5086615;28;20051;-83
2023/12/22 00:30:41;;;;;;;39.20;22.08;;;;;;;4.40;68.50;99107.06;5085808;28;20086;-84
2023/12/22 00:33:36;;;;;;;34.25;23.05;;;;;;;4.67;70.52;99118.34;5084526;28;20051;-84
2023/12/22 00:36:30;;;;;;;27.63;19.30;;;;;;;4.54;71.03;99130.06;5084204;28;20052;-83
2023/12/22 00:39:25;;;;;;;28.30;20.23;;;;;;;4.14;70.51;99109.69;5081428;28;20070;-83
2023/12/22 00:42:17;;;;;;;24.80;17.83;;;;;;;4.30;70.31;99105.47;5085361;28;20051;-83
2023/12/22 00:45:11;;;;;;;32.80;22.35;;;;;;;4.37;70.20;99099.63;5079980;28;20691;-83
2023/12/22 00:48:06;;;;;;;31.23;22.88;;;;;;;4.04;71.01;99110.78;5080597;28;20047;-83
2023/12/22 00:51:01;;;;;;;21.52;16.27;;;;;;;3.92;71.62;99110.56;5085244;28;20052;-83
2023/12/22 00:53:53;;;;;;;29.77;21.65;;;;;;;4.16;71.55;99121.75;5081037;28;20051;-83
2023/12/22 00:56:42;;;;;;;42.78;21.70;;;;;;;4.22;70.04;99112.41;5079483;28;20059;-83
2023/12/22 00:59:37;;;;;;;27.50;21.13;;;;;;;4.17;70.71;99142.13;5085977;28;20051;-83
2023/12/22 01:02:31;;;;;;;31.55;21.30;;;;;;;4.33;70.25;99126.34;5080551;28;20091;-83
2023/12/22 01:05:26;;;;;;;27.45;19.95;;;;;;;4.27;69.85;99133.78;5078755;28;20047;-83
2023/12/22 01:08:20;;;;;;;22.77;16.65;;;;;;;4.40;68.94;99117.84;5081731;28;20055;-84
2023/12/22 01:11:15;;;;;;;23.33;15.68;;;;;;;4.13;69.33;99102.72;5079570;28;20409;-83
2023/12/22 01:14:07;;;;;;;28.95;20.98;;;;;;;4.03;69.05;99119.94;5082638;28;20039;-83
2023/12/22 01:17:00;;;;;;;28.27;19.98;;;;;;;4.27;69.16;99084.56;5079343;28;20059;-84
2023/12/22 01:19:55;;;;;;;28.48;20.40;;;;;;;4.42;68.67;99096.81;5083686;28;20039;-83
2023/12/22 01:22:49;;;;;;;28.38;20.65;;;;;;;4.37;67.97;99096.94;5081501;28;20047;-83
2023/12/22 01:25:42;;;;;;;22.57;16.10;;;;;;;4.07;67.96;99101.28;5085460;28;20040;-83
2023/12/22 01:28:36;;;;;;;28.95;21.20;;;;;;;4.05;67.86;99090.84;5085229;28;20056;-83
2023/12/22 01:31:34;;;;;;;30.17;20.77;;;;;;;4.18;68.23;99079.16;5085036;28;20048;-84
2023/12/22 01:34:33;;;;;;;27.83;20.80;;;;;;;4.03;67.75;99076.91;5081336;28;20056;-83
2023/12/22 01:37:28;;;;;;;32.15;22.23;;;;;;;3.91;68.70;99086.69;5081296;28;20044;-83
2023/12/22 01:40:23;;;;;;;27.05;15.82;;;;;;;4.08;68.35;99082.16;5078670;28;20043;-83
2023/12/22 01:43:15;;;;;;;23.95;16.05;;;;;;;4.12;68.28;99093.06;5085355;28;20063;-83
2023/12/22 01:46:08;;;;;;;25.30;18.42;;;;;;;3.77;68.99;99070.66;5080444;28;20413;-83
2023/12/22 01:49:00;;;;;;;29.98;19.98;;;;;;;3.60;69.61;99078.66;5084033;28;20044;-84
2023/12/22 01:51:55;;;;;;;22.90;15.32;;;;;;;3.78;70.32;99088.38;5081833;28;20528;-83
2023/12/22 01:54:49;;;;;;;29.27;18.80;;;;;;;4.21;70.58;99101.97;5079840;28;20052;-83
2023/12/22 01:57:43;;;;;;;18.10;14.13;;;;;;;4.30;67.73;99108.97;5085025;28;20413;-83
2023/12/22 02:00:37;;;;;;;27.08;18.35;;;;;;;4.47;66.81;99091.28;5080234;28;20047;-83
2023/12/22 02:03:37;;;;;;;26.37;15.00;;;;;;;4.26;67.81;99101.81;5083209;28;20055;-83
2023/12/22 02:06:36;;;;;;;31.50;18.20;;;;;;;4.32;69.75;99099.78;5081447;28;20063;-83
2023/12/22 02:09:31;;;;;;;33.53;17.40;;;;;;;4.47;70.08;99085.88;5083196;28;20052;-83
2023/12/22 02:12:25;;;;;;;28.75;18.52;;;;;;;4.53;68.75;99101.53;5080862;28;20520;-83
2023/12/22 02:15:20;;;;;;;22.80;14.73;;;;;;;4.61;68.18;99092.72;5078200;28;20053;-83
2023/12/22 02:18:22;;;;;;;27.40;19.17;;;;;;;4.21;68.91;99102.78;5084142;28;20047;-83
2023/12/22 02:21:14;;;;;;;22.35;16.83;;;;;;;4.04;69.96;99088.47;5079934;28;20043;-83
2023/12/22 02:24:09;;;;;;;26.80;18.48;;;;;;;3.77;71.51;99074.13;5080764;28;20048;-83
2023/12/22 02:27:06;;;;;;;20.40;13.23;;;;;;;3.95;73.25;99053.50;5084039;28;20052;-83
2023/12/22 02:30:08;;;;;;;25.50;16.95;;;;;;;4.30;72.64;99063.22;5078717;28;20052;-84
2023/12/22 02:33:03;;;;;;;31.83;19.65;;;;;;;4.50;72.68;99069.88;5083710;28;20048;-83
2023/12/22 02:36:00;;;;;;;26.40;15.35;;;;;;;4.34;76.79;99063.38;5083707;28;20051;-83
2023/12/22 02:38:56;;;;;;;34.30;19.50;;;;;;;4.32;77.60;99070.97;5077386;28;20063;-83
2023/12/22 02:41:49;;;;;;;32.67;19.10;;;;;;;4.30;78.39;99090.13;5083852;28;20047;-83
2023/12/22 02:44:43;;;;;;;26.23;17.98;;;;;;;4.25;78.85;99090.28;5079066;28;20047;-82
2023/12/22 02:47:33;;;;;;;24.80;17.80;;;;;;;4.37;80.05;99064.66;5081842;28;20048;-83
2023/12/22 02:50:31;;;;;;;37.90;19.15;;;;;;;4.48;79.47;99063.22;5079513;28;20081;-83
2023/12/22 02:53:25;;;;;;;31.02;18.52;;;;;;;4.71;79.39;99052.00;5082431;28;20039;-83
2023/12/22 02:56:20;;;;;;;23.80;15.83;;;;;;;4.70;78.23;99063.09;5083324;28;20043;-83
2023/12/22 02:59:12;;;;;;;21.02;14.55;;;;;;;4.68;78.15;99049.94;5063022;28;20047;-83
2023/12/22 03:02:07;;;;;;;27.45;19.17;;;;;;;4.90;78.34;99067.03;5081451;28;20607;-83
2023/12/22 03:05:01;;;;;;;20.73;14.33;;;;;;;4.89;79.74;99055.47;5077486;28;20505;-82
2023/12/22 03:07:56;;;;;;;26.63;17.65;;;;;;;4.86;78.48;99050.75;5083082;28;20525;-83
2023/12/22 03:10:50;;;;;;;22.07;13.17;;;;;;;4.93;78.79;99051.03;5077919;28;20047;-83
2023/12/22 03:13:45;;;;;;;19.83;13.68;;;;;;;4.88;79.16;99051.19;5078199;28;20051;-83
2023/12/22 03:16:37;;;;;;;20.58;13.10;;;;;;;5.00;79.27;99040.56;5083697;28;20067;-83
2023/12/22 03:19:32;;;;;;;28.40;18.42;;;;;;;5.07;79.34;99035.50;5083750;28;20067;-83
2023/12/22 03:22:24;;;;;;;25.60;17.95;;;;;;;5.11;77.24;99035.66;5077007;28;20512;-84
2023/12/22 03:25:19;;;;;;;22.83;15.32;;;;;;;4.85;76.78;99026.81;5076898;28;20052;-83
2023/12/22 03:28:13;;;;;;;26.80;16.88;;;;;;;4.96;79.11;99012.69;5083391;28;20043;-84
2023/12/22 03:31:13;;;;;;;24.10;16.67;;;;;;;5.22;77.38;99019.94;5080247;28;20418;-83
2023/12/22 03:34:05;;;;;;;25.40;13.10;;;;;;;5.00;76.39;99029.81;5079108;28;20040;-83
2023/12/22 03:37:00;;;;;;;26.73;15.77;;;;;;;5.00;75.41;99048.66;5083131;28;20270;-84
2023/12/22 03:39:52;;;;;;;18.23;12.13;;;;;;;4.89;75.26;99052.78;5080748;28;20044;-83
2023/12/22 03:42:52;;;;;;;22.85;15.55;;;;;;;4.78;75.72;99042.66;5078380;28;20047;-83
2023/12/22 03:45:46;;;;;;;23.93;15.13;;;;;;;4.43;75.89;99041.84;5082700;28;20047;-83
2023/12/22 03:48:41;;;;;;;25.25;17.38;;;;;;;4.56;75.22;99052.50;5079426;28;20044;-83
2023/12/22 03:51:33;;;;;;;17.33;11.93;;;;;;;4.55;74.65;99045.50;5082947;28;20047;-83
2023/12/22 03:54:28;;;;;;;26.17;15.57;;;;;;;4.50;76.71;99058.31;5078868;28;20060;-84
2023/12/22 03:57:20;;;;;;;23.25;15.45;;;;;;;4.38;75.06;99050.88;5082802;28;20039;-83
2023/12/22 04:00:13;;;;;;;22.08;14.73;;;;;;;4.52;75.52;99064.19;5082765;28;20044;-83
2023/12/22 04:03:05;;;;;;;;;;;;;;;4.50;74.55;99058.31;5080073;28;20048;-84
2023/12/22 04:05:57;;;;;;;22.60;15.15;;;;;;;4.52;74.07;99064.19;5078722;28;19912;-83
2023/12/22 04:08:52;;;;;;;23.08;14.98;;;;;;;4.54;73.96;99054.69;5081332;28;20048;-84
2023/12/22 04:11:41;;;;;;;24.48;15.15;;;;;;;4.54;74.66;99061.97;5074280;28;20052;-84
2023/12/22 04:14:36;;;;;;;22.85;15.10;;;;;;;4.52;73.95;99067.66;5056432;28;20063;-83
2023/12/22 04:17:30;;;;;;;21.00;14.15;;;;;;;4.34;74.11;99081.41;5064747;28;20513;-83
2023/12/22 04:20:25;;;;;;;22.30;14.60;;;;;;;4.19;75.13;99059.25;5077174;28;20043;-83
2023/12/22 04:23:19;;;;;;;16.20;10.52;;;;;;;4.35;74.83;99074.94;5081313;28;20043;-84
2023/12/22 04:26:14;;;;;;;17.87;10.43;;;;;;;4.55;74.22;99066.25;5082631;28;20044;-83
2023/12/22 04:29:06;;;;;;;15.00;10.07;;;;;;;4.41;72.98;99077.16;5082610;28;20043;-84
2023/12/22 04:31:58;;;;;;;17.13;11.25;;;;;;;4.63;73.46;99082.41;5089028;28;20421;-83
2023/12/22 04:34:56;;;;;;;15.02;9.75;;;;;;;4.88;72.84;99083.50;5077584;28;20043;-83
2023/12/22 04:37:48;;;;;;;19.38;13.15;;;;;;;4.84;71.42;99085.25;5081118;28;20051;-84
2023/12/22 04:40:40;;;;;;;18.00;11.82;;;;;;;4.89;70.15;99087.78;5078141;28;20516;-84
2023/12/22 04:43:34;;;;;;;20.83;12.25;;;;;;;4.78;70.54;99089.22;5080381;28;20055;-83
2023/12/22 04:46:27;;;;;;;;;;;;;;;4.64;70.73;99096.66;5084473;28;20048;-84
2023/12/22 04:49:20;;;;;;;19.03;11.13;;;;;;;4.56;71.26;99073.22;5081577;28;20289;-83
2023/12/22 04:52:18;;;;;;;16.40;10.80;;;;;;;4.42;71.89;99072.59;5085424;28;20044;-83
2023/12/22 04:55:12;;;;;;;13.13;8.98;;;;;;;4.50;72.15;99071.78;5080505;28;20047;-83
2023/12/22 04:58:07;;;;;;;14.50;10.18;;;;;;;4.43;70.92;99056.09;5080418;28;20043;-83
2023/12/22 05:01:01;;;;;;;11.60;8.02;;;;;;;4.22;71.30;99082.00;5086131;28;20042;-84
2023/12/22 05:03:51;;;;;;;11.50;7.05;;;;;;;4.32;70.39;99095.16;5083969;28;20048;-83
2023/12/22 05:06:45;;;;;;;9.00;5.45;;;;;;;4.47;70.48;99083.97;5075980;28;20566;-82
2023/12/22 05:09:46;;;;;;;5.15;3.50;;;;;;;4.73;71.12;99089.38;5074873;28;20044;-83
2023/12/22 05:12:38;;;;;;;6.05;3.95;;;;;;;5.02;70.13;99097.63;5079968;28;20051;-83
2023/12/22 05:15:35;;;;;;;11.05;6.10;;;;;;;5.18;69.65;99117.56;5077345;28;20043;-84
2023/12/22 05:18:30;;;;;;;8.07;4.60;;;;;;;5.37;67.64;99130.72;5072231;28;20045;-83
2023/12/22 05:21:24;;;;;;;4.45;3.67;;;;;;;5.78;65.50;99138.22;5067952;28;20047;-83
2023/12/22 05:24:19;;;;;;;6.22;4.10;;;;;;;5.85;65.18;99146.59;5081629;28;20043;-84
2023/12/22 05:27:14;;;;;;;5.03;2.83;;;;;;;5.93;64.86;99135.03;5085611;28;20059;-84
2023/12/22 05:30:08;;;;;;;7.63;4.00;;;;;;;5.76;67.63;99128.88;5085430;28;20075;-84
2023/12/22 05:33:00;;;;;;;6.03;3.72;;;;;;;5.71;67.17;99118.25;5080631;28;20051;-83
2023/12/22 05:35:52;;;;;;;5.90;3.28;;;;;;;5.69;66.98;99094.31;5077900;28;20044;-83
2023/12/22 05:38:47;;;;;;;8.05;4.53;;;;;;;5.84;67.04;99096.47;5062646;28;20048;-84
2023/12/22 05:41:39;;;;;;;6.35;3.33;;;;;;;5.92;67.70;99103.78;5077023;28;20083;-82
2023/12/22 05:44:33;;;;;;;15.38;4.45;;;;;;;6.03;66.21;99098.81;5072926;28;20048;-83
2023/12/22 05:47:26;;;;;;;5.93;3.97;;;;;;;5.93;65.59;99093.78;5076434;28;20441;-83
2023/12/22 05:50:18;;;;;;;7.53;5.20;;;;;;;6.02;65.78;99078.34;5078457;28;20053;-82
2023/12/22 05:53:10;;;;;;;11.40;4.50;;;;;;;6.10;65.29;99092.91;5081174;28;20047;-82
2023/12/22 05:56:05;;;;;;;6.88;4.28;;;;;;;6.11;65.55;99091.78;5079995;28;20051;-82
2023/12/22 05:58:57;;;;;;;3.05;2.08;;;;;;;6.45;61.93;99091.59;5073044;28;20039;-81
2023/12/22 06:01:53;;;;;;;5.55;2.80;;;;;;;6.47;61.46;99100.16;5074320;28;20041;-82
2023/12/22 06:04:45;;;;;;;6.57;2.90;;;;;;;6.20;62.08;99124.91;5073226;28;20048;-82
2023/12/22 06:07:37;;;;;;;4.80;2.75;;;;;;;5.92;62.01;99133.44;5079750;28;20059;-82
2023/12/22 06:10:29;;;;;;;3.83;1.92;;;;;;;6.25;61.68;99114.72;5077554;28;20039;-81
2023/12/22 06:13:23;;;;;;;3.17;2.00;;;;;;;6.49;62.05;99113.34;5073770;28;20055;-83
2023/12/22 06:16:21;;;;;;;9.90;1.60;;;;;;;6.76;61.48;99113.63;5074853;28;20161;-82
2023/12/22 06:19:16;;;;;;;8.40;2.45;;;;;;;6.72;62.17;99104.59;5078379;28;20406;-82
2023/12/22 06:22:08;;;;;;;4.35;1.95;;;;;;;6.98;61.52;99131.41;5082131;28;20036;-81
2023/12/22 06:25:02;;;;;;;3.38;1.75;;;;;;;7.11;60.88;99138.44;5079478;28;20051;-82
2023/12/22 06:27:52;;;;;;;5.43;1.60;;;;;;;7.67;59.11;99141.59;5069824;28;20043;-81
2023/12/22 06:30:46;;;;;;;4.30;2.17;;;;;;;7.64;58.27;99132.25;5077973;28;20048;-82
2023/12/22 06:33:38;;;;;;;2.40;1.67;;;;;;;7.79;57.62;99157.06;5072862;28;20055;-82
2023/12/22 06:36:30;;;;;;;3.92;2.10;;;;;;;7.81;57.37;99161.03;5082013;28;20052;-82
2023/12/22 06:39:22;;;;;;;5.28;2.05;;;;;;;7.88;56.91;99165.88;5079332;28;20064;-82
2023/12/22 06:42:17;;;;;;;2.08;1.55;;;;;;;7.77;57.82;99170.16;5078076;28;20043;-82
2023/12/22 06:45:12;;;;;;;2.97;1.63;;;;;;;7.82;57.00;99168.03;5077602;28;20048;-81
2023/12/22 06:48:06;;;;;;;5.68;2.08;;;;;;;7.79;57.51;99162.47;5074401;28;20040;-82
2023/12/22 06:50:59;;;;;;;2.83;1.35;;;;;;;7.74;57.08;99155.38;5081112;28;20547;-82
2023/12/22 06:54:00;;;;;;;2.78;1.80;;;;;;;7.66;57.79;99176.00;5079910;28;20043;-82
2023/12/22 06:56:54;;;;;;;6.65;1.65;;;;;;;7.53;58.68;99171.66;5070777;28;20044;-81
2023/12/22 06:59:49;;;;;;;3.57;1.17;;;;;;;7.57;58.52;99183.38;5078461;28;20047;-82
2023/12/22 07:02:44;;;;;;;2.17;1.23;;;;;;;7.50;58.25;99193.97;5080714;28;20286;-82
2023/12/22 07:05:38;;;;;;;1.35;1.02;;;;;;;7.47;58.89;99208.13;5077819;28;20320;-82
2023/12/22 07:08:33;;;;;;;7.15;1.60;;;;;;;7.45;57.81;99213.09;5074824;28;20035;-82
2023/12/22 07:11:25;;;;;;;7.60;2.90;;;;;;;7.35;58.69;99223.50;5071036;28;20051;-82
2023/12/22 07:14:19;;;;;;;5.23;2.53;;;;;;;7.35;58.33;99239.75;5078026;28;20047;-82
2023/12/22 07:17:11;;;;;;;13.63;3.85;;;;;;;7.31;59.25;99245.03;5082715;28;20043;-82
2023/12/22 07:20:06;;;;;;;3.57;2.90;;;;;;;7.32;58.65;99249.28;5076170;28;20047;-82
2023/12/22 07:23:01;;;;;;;11.07;2.10;;;;;;;7.30;59.11;99256.94;5079180;28;20821;-81
2023/12/22 07:25:56;;;;;;;6.13;3.10;;;;;;;7.54;60.08;99254.38;5083360;28;20059;-82
2023/12/22 07:28:48;;;;;;;2.97;1.75;;;;;;;7.67;57.69;99257.91;5081404;28;20044;-81
2023/12/22 07:31:40;;;;;;;2.50;1.70;;;;;;;7.59;57.98;99250.69;5080247;28;20044;-81
2023/12/22 07:34:37;;;;;;;2.85;1.60;;;;;;;7.67;57.68;99261.41;5078081;28;20048;-80
2023/12/22 07:37:29;;;;;;;3.08;1.52;;;;;;;7.44;58.43;99254.78;5079243;28;20053;-79
2023/12/22 07:40:24;;;;;;;2.58;1.60;;;;;;;7.99;55.89;99232.00;5070962;28;20043;-79
2023/12/22 07:43:19;;;;;;;1.33;0.83;;;;;;;8.14;54.51;99247.59;5078533;28;20048;-82
2023/12/22 07:46:18;;;;;;;2.70;1.27;;;;;;;7.90;57.50;99251.03;5077615;28;20786;-81
2023/12/22 07:49:12;;;;;;;8.10;1.58;;;;;;;8.12;55.88;99245.25;5074437;28;20044;-80
2023/12/22 07:52:04;;;;;;;4.40;1.75;;;;;;;8.25;56.88;99251.47;5078661;28;20048;-81
2023/12/22 07:54:57;;;;;;;2.55;1.55;;;;;;;8.01;57.68;99249.50;5075425;28;20035;-80
2023/12/22 07:57:51;;;;;;;3.72;1.60;;;;;;;8.12;57.49;99244.47;5079030;28;20044;-80
2023/12/22 08:00:46;;;;;;;8.10;1.63;;;;;;;8.58;59.07;99244.09;5070678;28;20044;-80
2023/12/22 08:03:43;;;;;;;3.10;1.65;;;;;;;8.91;54.57;99245.91;5065731;28;20039;-80
2023/12/22 08:06:38;;;;;;;2.80;1.25;;;;;;;9.29;52.46;99248.25;5093509;28;20043;-79
2023/12/22 08:09:32;;;;;;;2.10;1.00;;;;;;;9.27;53.43;99254.00;5095436;28;20358;-80
2023/12/22 08:12:27;;;;;;;1.40;1.00;;;;;;;9.29;53.27;99262.59;5099935;28;20059;-80
2023/12/22 08:15:22;;;;;;;5.10;1.07;;;;;;;9.20;54.01;99270.06;5095376;28;20031;-79
2023/12/22 08:18:17;;;;;;;1.48;0.45;;;;;;;9.27;52.24;99283.03;5093963;28;20039;-79
2023/12/22 08:21:09;;;;;;;2.95;1.10;;;;;;;9.09;54.07;99290.66;5085171;28;20039;-79
2023/12/22 08:24:01;;;;;;;7.25;1.75;;;;;;;9.04;55.18;99298.22;5082393;28;20044;-80
2023/12/22 08:26:55;;;;;;;8.02;1.58;;;;;;;9.15;53.34;99300.13;5079986;28;20043;-80
2023/12/22 08:29:45;;;;;;;12.98;2.53;;;;;;;9.57;57.31;99303.34;5082720;28;20063;-80
2023/12/22 08:32:31;;;;;;;3.50;0.73;;;;;;;9.58;50.18;99298.69;5078781;28;20055;-80
2023/12/22 08:35:26;;;;;;;1.90;1.33;;;;;;;9.63;50.63;99299.25;5077763;28;20044;-79
2023/12/22 08:38:20;;;;;;;4.87;1.03;;;;;;;9.57;52.60;99308.78;5081037;28;20052;-79
2023/12/22 08:41:11;;;;;;;7.28;0.95;;;;;;;9.59;53.34;99313.84;5077955;28;20055;-79
2023/12/22 08:44:06;;;;;;;8.98;2.90;;;;;;;9.60;53.71;99326.31;5081546;28;20043;-79
2023/12/22 08:46:56;;;;;;;6.35;1.80;;;;;;;9.51;53.74;99325.63;5078996;28;20043;-79
2023/12/22 08:49:45;;;;;;;5.78;1.20;;;;;;;9.56;54.05;99338.94;5081671;28;20055;-79
2023/12/22 08:52:40;;;;;;;13.13;1.35;;;;;;;9.54;55.03;99336.59;5073799;28;20063;-79
2023/12/22 08:55:34;;;;;;;6.32;1.02;;;;;;;9.86;52.98;99359.25;5078925;28;20039;-79
2023/12/22 08:58:26;;;;;;;4.00;0.90;;;;;;;9.93;52.78;99361.38;5081593;28;20055;-79
2023/12/22 09:01:21;;;;;;;8.20;1.73;;;;;;;10.56;49.77;99376.81;5079704;28;20048;-80
2023/12/22 09:04:16;;;;;;;6.22;0.82;;;;;;;10.87;48.95;99367.88;5077201;28;20055;-80
2023/12/22 09:07:11;;;;;;;8.55;2.50;;;;;;;11.07;48.75;99387.84;5080216;28;20409;-79
2023/12/22 09:10:05;;;;;;;2.92;1.15;;;;;;;11.03;47.87;99392.38;5078280;28;20043;-80
2023/12/22 09:13:00;;;;;;;2.50;1.00;;;;;;;10.98;51.90;99392.63;5077583;28;20524;-80
2023/12/22 09:15:55;;;;;;;4.90;1.47;;;;;;;11.43;49.60;99390.25;5079208;28;20043;-79
2023/12/22 09:18:49;;;;;;;12.37;1.93;;;;;;;11.79;51.77;99389.16;5071228;28;20278;-79
2023/12/22 09:21:44;;;;;;;2.70;0.90;;;;;;;11.64;48.72;99389.16;5081488;28;20413;-80
2023/12/22 09:24:39;;;;;;;4.28;0.50;;;;;;;12.04;48.58;99397.88;5079091;28;20421;-79
2023/12/22 09:27:34;;;;;;;1.95;0.55;;;;;;;12.46;41.74;99373.41;5081367;28;20047;-80
2023/12/22 09:30:28;;;;;;;0.82;0.43;;;;;;;12.58;44.87;99378.72;5079016;28;20047;-80
2023/12/22 09:33:23;;;;;;;2.45;0.80;;;;;;;12.69;48.03;99396.09;5077345;28;20044;-81
2023/12/22 09:36:17;;;;;;;3.47;0.55;;;;;;;12.89;45.58;99385.94;5080348;28;20036;-80
2023/12/22 09:39:10;;;;;;;1.33;0.57;;;;;;;13.09;46.89;99392.13;5078147;28;20063;-83
2023/12/22 09:42:04;;;;;;;1.95;0.98;;;;;;;13.39;46.11;99394.97;5090813;28;20098;-82
2023/12/22 09:44:57;;;;;;;6.40;1.20;;;;;;;13.62;46.22;99393.78;5087606;28;20048;-81
2023/12/22 09:47:54;;;;;;;4.15;0.70;;;;;;;13.58;44.56;99387.47;5084373;28;20048;-82
2023/12/22 09:50:44;;;;;;;3.05;0.85;;;;;;;13.58;44.62;99394.88;5090507;28;20043;-82
2023/12/22 09:53:40;;;;;;;9.82;2.55;;;;;;;13.83;49.71;99398.75;5087232;28;20043;-82
2023/12/22 09:56:33;;;;;;;8.55;1.38;;;;;;;14.01;48.42;99410.75;5093718;28;20046;-81
2023/12/22 09:59:28;;;;;;;3.78;0.80;;;;;;;13.95;46.00;99400.50;5089504;28;20039;-82
2023/12/22 10:02:23;;;;;;;9.68;1.60;;;;;;;14.72;48.82;99400.69;5085093;28;20048;-82
2023/12/22 10:05:18;;;;;;;6.90;0.80;;;;;;;14.10;43.83;99399.53;5071749;28;20040;-82
2023/12/22 10:08:13;;;;;;;5.20;0.68;;;;;;;14.33;45.09;99411.13;5080619;28;20051;-81
2023/12/22 10:11:08;;;;;;;3.60;0.57;;;;;;;14.33;42.62;99408.41;5086724;28;20047;-81
2023/12/22 10:14:04;;;;;;;5.97;1.65;;;;;;;14.66;42.13;99395.94;5088919;28;20047;-81
2023/12/22 10:16:59;;;;;;;4.85;0.75;;;;;;;14.69;41.28;99392.44;5086682;28;20115;-82
2023/12/22 10:19:54;;;;;;;13.40;1.20;;;;;;;14.85;40.60;99382.03;5089936;28;20047;-81
2023/12/22 10:22:48;;;;;;;4.82;1.20;;;;;;;15.06;41.17;99379.50;5088863;28;20039;-81
2023/12/22 10:25:42;;;;;;;5.68;0.80;;;;;;;15.02;39.97;99367.75;5090436;28;20118;-81
2023/12/22 10:28:37;;;;;;;2.85;0.98;;;;;;;15.25;39.22;99346.41;5080906;28;20040;-83
2023/12/22 10:31:29;;;;;;;5.87;1.07;;;;;;;15.58;39.26;99344.72;5086162;28;20051;-82
2023/12/22 10:34:23;;;;;;;0.88;0.30;;;;;;;15.92;37.84;99350.78;5087095;28;20298;-83
2023/12/22 10:37:15;;;;;;;1.85;0.35;;;;;;;15.94;37.60;99337.50;5077841;28;20035;-82
2023/12/22 10:40:14;;;;;;;6.10;0.50;;;;;;;15.80;37.70;99338.19;5077438;28;20043;-83
2023/12/22 10:43:06;;;;;;;7.60;0.70;;;;;;;15.75;37.66;99338.56;5087845;28;20043;-84
2023/12/22 10:46:01;;;;;;;15.37;1.20;;;;;;;15.87;37.83;99343.72;5077271;28;20051;-84
2023/12/22 10:48:56;;;;;;;0.65;0.60;;;;;;;16.04;37.03;99342.25;5079688;28;20278;-82
2023/12/22 10:51:48;;;;;;;7.47;0.65;;;;;;;16.09;38.88;99334.44;5083409;28;20063;-82
2023/12/22 10:54:43;;;;;;;0.77;0.63;;;;;;;15.79;36.89;99314.72;5082646;28;20047;-85
2023/12/22 10:57:38;;;;;;;0.82;0.45;;;;;;;15.70;36.58;99317.00;5086132;28;20059;-85
2023/12/22 11:00:33;;;;;;;1.23;0.30;;;;;;;15.68;36.37;99313.88;5083794;28;20047;-85
2023/12/22 11:03:26;;;;;;;4.57;0.70;;;;;;;15.63;36.42;99311.47;5087101;28;20043;-84
2023/12/22 11:06:17;;;;;;;3.00;0.30;;;;;;;15.69;35.22;99301.75;5085341;28;20055;-85
2023/12/22 11:09:19;;;;;;;1.02;0.50;;;;;;;15.74;36.54;99301.38;5082227;28;20048;-85
2023/12/22 11:12:14;;;;;;;10.57;0.50;;;;;;;15.85;36.56;99295.94;5086513;28;20052;-84
2023/12/22 11:15:09;;;;;;;7.80;0.68;;;;;;;15.89;36.79;99302.22;5082898;28;20047;-85
2023/12/22 11:18:04;;;;;;;4.85;0.80;;;;;;;16.07;36.94;99292.88;5087289;28;20051;-85
2023/12/22 11:20:58;;;;;;;0.90;0.40;;;;;;;16.21;36.10;99298.41;5081530;28;20040;-85
2023/12/22 11:23:52;;;;;;;1.00;0.43;;;;;;;16.34;36.56;99304.34;5082855;28;20055;-85
2023/12/22 11:26:44;;;;;;;3.53;0.50;;;;;;;16.44;35.84;99309.06;5079006;28;20043;-85
2023/12/22 11:29:37;;;;;;;3.08;0.57;;;;;;;16.51;36.55;99311.03;5083347;28;20052;-85
2023/12/22 11:32:35;;;;;;;0.93;0.30;;;;;;;16.64;34.52;99299.34;5086865;28;20059;-85
2023/12/22 11:35:31;;;;;;;0.90;0.38;;;;;;;16.65;34.25;99295.41;5082877;28;20520;-85
2023/12/22 11:38:23;;;;;;;1.92;0.40;;;;;;;16.68;33.90;99282.84;5082260;28;20047;-85
2023/12/22 11:41:21;;;;;;;0.43;0.10;;;;;;;16.71;34.31;99279.31;5086402;28;20348;-85
2023/12/22 11:44:13;;;;;;;3.72;0.85;;;;;;;16.86;34.33;99282.88;5084199;28;20313;-84
2023/12/22 11:47:13;;;;;;;1.80;0.57;;;;;;;16.96;33.46;99271.91;5088088;28;20043;-85
2023/12/22 11:50:10;;;;;;;1.85;0.30;;;;;;;16.99;33.87;99265.59;5084882;28;20044;-85
2023/12/22 11:53:37;;;;;;;3.63;0.45;;;;;;;17.03;33.68;99262.84;5081444;28;20047;-85
2023/12/22 11:56:33;;;;;;;4.85;0.22;;;;;;;17.08;32.29;99263.25;5084523;28;20044;-85
2023/12/22 11:59:27;;;;;;;2.42;0.57;;;;;;;17.21;33.97;99255.38;5088082;28;20056;-85
2023/12/22 12:02:23;;;;;;;0.50;0.10;;;;;;;17.26;33.31;99256.94;5086884;28;20039;-85
2023/12/22 12:05:19;;;;;;;6.65;0.40;;;;;;;17.34;32.75;99255.75;5083694;28;20059;-84
2023/12/22 12:08:13;;;;;;;0.95;0.32;;;;;;;17.33;32.27;99270.66;5087826;28;20410;-83
2023/12/22 12:11:03;;;;;;;3.00;0.40;;;;;;;17.46;32.92;99261.63;5084622;28;20052;-84
2023/12/22 12:14:09;;;;;;;7.80;0.60;;;;;;;17.41;31.93;99258.47;5083436;28;20043;-84
2023/12/22 12:17:12;;;;;;;1.13;0.43;;;;;;;17.46;31.89;99249.84;5086959;28;20056;-84
2023/12/22 12:20:09;;;;;;;2.13;0.40;;;;;;;17.36;31.80;99254.19;5083955;28;20052;-83
2023/12/22 12:23:05;;;;;;;0.77;0.30;;;;;;;17.46;32.42;99256.13;5088156;28;20051;-84
2023/12/22 12:26:03;;;;;;;4.78;0.45;;;;;;;17.51;32.43;99263.16;5084663;28;20052;-84
2023/12/22 12:28:56;;;;;;;1.20;0.60;;;;;;;17.39;31.59;99271.81;5088434;28;20047;-84
2023/12/22 12:31:48;;;;;;;4.60;1.70;;;;;;;17.38;31.94;99273.00;5085882;28;20044;-84
2023/12/22 12:34:44;;;;;;;7.10;1.20;;;;;;;17.44;32.69;99285.16;5084209;28;20055;-84
2023/12/22 12:37:39;;;;;;;16.27;5.90;;;;;;;17.36;32.28;99272.63;5086899;28;20063;-85
2023/12/22 12:40:32;;;;;;;28.52;11.63;;;;;;;17.43;32.36;99267.09;5084191;28;20048;-84
2023/12/22 12:43:27;;;;;;;9.65;4.22;;;;;;;17.46;31.64;99264.38;5089015;28;20047;-84
2023/12/22 12:46:16;;;;;;;13.70;6.60;;;;;;;17.53;32.25;99269.81;5085417;28;20047;-84
2023/12/22 12:49:11;;;;;;;13.77;6.28;;;;;;;17.57;31.91;99255.31;5083816;28;20051;-84
2023/12/22 12:52:05;;;;;;;6.20;3.30;;;;;;;17.61;30.88;99250.59;5087513;28;20055;-84
2023/12/22 12:55:00;;;;;;;7.60;3.28;;;;;;;17.64;31.26;99239.59;5084560;28;20048;-84
2023/12/22 12:57:55;;;;;;;9.75;5.20;;;;;;;17.70;31.64;99239.97;5087912;28;20587;-84
2023/12/22 13:00:45;;;;;;;5.78;2.60;;;;;;;17.76;31.38;99236.41;5085880;28;20044;-84
2023/12/22 13:03:55;;;;;;;8.15;4.28;;;;;;;17.83;31.21;99241.84;5089383;28;20524;-84
2023/12/22 13:06:56;;;;;;;7.65;4.07;;;;;;;17.92;31.35;99239.47;5082760;28;20059;-84
2023/12/22 13:09:51;;;;;;;2.83;1.65;;;;;;;17.97;31.80;99238.28;5083206;28;20055;-84
2023/12/22 13:12:46;;;;;;;6.78;1.52;;;;;;;17.99;31.37;99243.34;5086258;28;20532;-84
2023/12/22 13:15:45;;;;;;;4.35;2.38;;;;;;;18.01;30.67;99258.28;5083570;28;20055;-84
2023/12/22 13:18:37;;;;;;;7.30;3.60;;;;;;;18.11;29.58;99256.66;5087959;28;20409;-83
2023/12/22 13:21:30;;;;;;;4.78;2.55;;;;;;;18.15;29.54;99254.66;5084565;28;20050;-84
2023/12/22 13:24:25;;;;;;;6.80;2.80;;;;;;;18.26;29.85;99256.19;5082934;28;20115;-83
2023/12/22 13:27:15;;;;;;;4.20;1.98;;;;;;;18.38;29.35;99241.19;5085792;28;20051;-83
2023/12/22 13:30:11;;;;;;;7.43;0.47;;;;;;;18.49;28.93;99235.59;5086353;28;20047;-83
2023/12/22 13:33:03;;;;;;;3.70;0.98;;;;;;;18.53;28.95;99233.59;5084142;28;20044;-82
2023/12/22 13:35:56;;;;;;;22.05;2.35;;;;;;;18.58;28.33;99227.69;5082911;28;20081;-82
2023/12/22 13:38:54;;;;;;;0.90;0.43;;;;;;;18.53;27.32;99234.41;5080954;28;20071;-83
2023/12/22 13:41:49;;;;;;;2.85;0.70;;;;;;;18.53;28.52;99231.63;5084208;28;20043;-83